createdAt,value
2022-08-12T00:00:39.685Z,3.05
2022-08-12T00:03:24.411Z,3.30
2022-08-12T00:06:09.809Z,2.70
2022-08-12T00:08:56.106Z,2.80
2022-08-12T00:11:42.069Z,3.30
2022-08-12T00:14:26.773Z,2.90
2022-08-12T00:17:12.047Z,3.05
2022-08-12T00:19:56.944Z,2.92
2022-08-12T00:22:42.390Z,3.15
2022-08-12T00:26:19.676Z,2.88
2022-08-12T00:28:33.004Z,2.90
2022-08-12T00:31:18.290Z,3.05
2022-08-12T00:34:03.436Z,3.15
2022-08-12T00:36:50.654Z,3.10
2022-08-12T00:39:35.803Z,2.80
2022-08-12T00:42:11.388Z,2.70
2022-08-12T00:44:45.108Z,3.10
2022-08-12T00:47:24.817Z,2.70
2022-08-12T00:49:52.977Z,2.90
2022-08-12T00:52:19.727Z,2.95
2022-08-12T00:54:50.180Z,3.00
2022-08-12T00:57:17.268Z,3.15
2022-08-12T00:59:47.721Z,2.70
2022-08-12T01:02:16.208Z,2.85
2022-08-12T01:05:02.123Z,3.50
2022-08-12T01:07:47.659Z,3.10
2022-08-12T01:10:33.358Z,2.78
2022-08-12T01:13:18.166Z,3.00
2022-08-12T01:15:47.726Z,3.10
2022-08-12T01:18:14.377Z,3.20
2022-08-12T01:20:49.276Z,2.88
2022-08-12T01:23:34.370Z,2.85
2022-08-12T01:26:03.655Z,2.85
2022-08-12T01:28:31.630Z,3.33
2022-08-12T01:31:01.052Z,3.10
2022-08-12T01:33:31.775Z,3.05
2022-08-12T01:36:08.424Z,3.28
2022-08-12T01:38:35.722Z,2.80
2022-08-12T01:41:02.773Z,2.97
2022-08-12T01:43:30.400Z,3.47
2022-08-12T01:46:14.528Z,3.05
2022-08-12T01:48:55.812Z,2.70
2022-08-12T01:52:15.046Z,2.70
2022-08-12T01:54:30.154Z,3.20
2022-08-12T01:56:56.396Z,3.35
2022-08-12T01:59:48.191Z,2.90
2022-08-12T02:02:30.379Z,2.95
2022-08-12T02:05:34.441Z,3.00
2022-08-12T02:08:28.494Z,3.20
2022-08-12T02:11:19.033Z,3.00
2022-08-12T02:14:00.700Z,3.10
2022-08-12T02:17:05.151Z,2.80
2022-08-12T02:19:40.385Z,3.33
2022-08-12T02:22:07.091Z,2.90
2022-08-12T02:24:34.217Z,3.38
2022-08-12T02:27:01.809Z,2.83
2022-08-12T02:29:28.595Z,3.03
2022-08-12T02:31:55.041Z,2.83
2022-08-12T02:34:22.969Z,3.80
2022-08-12T02:36:49.524Z,3.13
2022-08-12T02:39:16.204Z,3.20
2022-08-12T02:41:43.457Z,3.10
2022-08-12T02:44:10.298Z,3.25
2022-08-12T02:46:37.391Z,2.90
2022-08-12T02:49:12.529Z,3.08
2022-08-12T02:51:40.093Z,2.83
2022-08-12T02:54:07.364Z,3.17
2022-08-12T02:56:38.558Z,3.30
2022-08-12T02:59:06.590Z,3.10
2022-08-12T03:01:34.113Z,3.08
2022-08-12T03:04:01.804Z,3.20
2022-08-12T03:06:32.407Z,3.13
2022-08-12T03:08:59.653Z,2.90
2022-08-12T03:11:42.128Z,3.33
2022-08-12T03:14:13.832Z,3.08
2022-08-12T03:16:40.612Z,2.92
2022-08-12T03:19:07.193Z,2.90
2022-08-12T03:21:55.563Z,3.45
2022-08-12T03:24:23.871Z,3.47
2022-08-12T03:26:51.637Z,3.35
2022-08-12T03:29:18.934Z,3.33
2022-08-12T03:31:45.791Z,3.00
2022-08-12T03:34:16.353Z,3.10
2022-08-12T03:36:42.692Z,3.33
2022-08-12T03:39:36.094Z,2.88
2022-08-12T03:42:19.398Z,3.05
2022-08-12T03:45:04.664Z,2.80
2022-08-12T03:47:49.537Z,3.00
2022-08-12T03:50:35.387Z,2.80
2022-08-12T03:53:20.634Z,3.10
2022-08-12T03:56:05.603Z,3.08
2022-08-12T03:58:50.408Z,3.13
2022-08-12T04:01:16.783Z,3.03
2022-08-12T04:03:53.246Z,2.72
2022-08-12T04:06:35.082Z,3.15
2022-08-12T04:09:05.092Z,3.10
2022-08-12T04:11:59.572Z,3.42
2022-08-12T04:14:26.988Z,3.30
2022-08-12T04:16:53.586Z,3.00
2022-08-12T04:19:20.588Z,3.20
2022-08-12T04:22:02.498Z,3.22
2022-08-12T04:24:29.859Z,3.17
2022-08-12T04:26:56.209Z,2.75
2022-08-12T04:29:23.253Z,2.80
2022-08-12T04:32:09.511Z,2.90
2022-08-12T04:34:38.652Z,3.40
2022-08-12T04:37:04.979Z,3.53
2022-08-12T04:39:31.509Z,3.30
2022-08-12T04:41:59.940Z,3.25
2022-08-12T04:44:27.997Z,3.80
2022-08-12T04:46:54.700Z,3.33
2022-08-12T04:49:21.224Z,3.08
2022-08-12T04:51:54.694Z,3.45
2022-08-12T04:54:26.044Z,3.40
2022-08-12T04:57:03.985Z,3.35
2022-08-12T04:59:46.528Z,3.30
2022-08-12T05:02:17.115Z,3.13
2022-08-12T05:04:48.588Z,3.40
2022-08-12T05:07:14.939Z,3.17
2022-08-12T05:09:59.334Z,3.88
2022-08-12T05:12:29.966Z,3.45
2022-08-12T05:14:56.263Z,3.45
2022-08-12T05:17:28.076Z,3.30
2022-08-12T05:19:54.681Z,3.67
2022-08-12T05:22:23.590Z,3.42
2022-08-12T05:24:49.925Z,3.60
2022-08-12T05:27:17.861Z,3.50
2022-08-12T05:30:07.294Z,3.45
2022-08-12T05:32:35.428Z,3.42
2022-08-12T05:35:06.385Z,3.28
2022-08-12T05:37:37.740Z,3.95
2022-08-12T05:40:10.540Z,3.67
2022-08-12T05:42:37.740Z,3.80
2022-08-12T05:45:04.322Z,3.55
2022-08-12T05:47:52.548Z,3.72
2022-08-12T05:50:16.935Z,3.75
2022-08-12T05:52:43.963Z,3.60
2022-08-12T05:55:11.699Z,3.97
2022-08-12T05:57:38.812Z,3.38
2022-08-12T06:00:05.558Z,3.78
2022-08-12T06:02:31.847Z,3.47
2022-08-12T06:05:00.208Z,3.55
2022-08-12T06:07:59.649Z,3.60
2022-08-12T06:10:13.464Z,3.50
2022-08-12T06:12:39.885Z,3.42
2022-08-12T06:15:06.505Z,3.40
2022-08-12T06:17:33.131Z,4.15
2022-08-12T06:20:22.774Z,3.50
2022-08-12T06:22:47.769Z,3.10
2022-08-12T06:25:21.847Z,3.50
2022-08-12T06:28:07.300Z,4.05
2022-08-12T06:30:38.611Z,3.92
2022-08-12T06:33:25.059Z,3.60
2022-08-12T06:35:57.676Z,3.25
2022-08-12T06:38:25.964Z,3.38
2022-08-12T06:41:12.207Z,3.92
2022-08-12T06:44:04.717Z,3.83
2022-08-12T06:46:26.451Z,3.42
2022-08-12T06:48:57.422Z,4.03
2022-08-12T06:51:24.459Z,3.90
2022-08-12T06:53:50.768Z,3.42
2022-08-12T06:56:17.306Z,3.65
2022-08-12T06:58:44.507Z,3.78
2022-08-12T07:01:11.164Z,3.80
2022-08-12T07:03:38.287Z,3.80
2022-08-12T07:06:07.376Z,3.80
2022-08-12T07:08:34.312Z,3.63
2022-08-12T07:11:01.981Z,3.72
2022-08-12T07:13:32.039Z,3.95
2022-08-12T07:15:58.618Z,3.65
2022-08-12T07:18:31.989Z,4.38
2022-08-12T07:20:58.913Z,4.10
2022-08-12T07:23:25.185Z,3.97
2022-08-12T07:25:54.105Z,3.90
2022-08-12T07:28:25.263Z,3.88
2022-08-12T07:30:52.734Z,3.95
2022-08-12T07:33:22.188Z,3.45
2022-08-12T07:35:49.121Z,3.80
2022-08-12T07:38:35.627Z,3.67
2022-08-12T07:41:05.555Z,3.58
2022-08-12T07:43:33.359Z,3.58
2022-08-12T07:46:00.362Z,3.83
2022-08-12T07:48:27.006Z,3.78
2022-08-12T07:50:53.739Z,3.85
2022-08-12T07:53:20.748Z,3.40
2022-08-12T07:55:47.635Z,3.70
2022-08-12T07:58:13.965Z,3.25
2022-08-12T08:00:40.335Z,3.38
2022-08-12T08:03:09.025Z,3.80
2022-08-12T08:05:39.406Z,3.70
2022-08-12T08:08:13.889Z,3.65
2022-08-12T08:10:40.416Z,3.75
2022-08-12T08:16:09.176Z,3.97
2022-08-12T08:18:37.184Z,4.68
2022-08-12T08:21:04.457Z,3.58
2022-08-12T08:23:56.047Z,3.70
2022-08-12T08:26:24.849Z,3.63
2022-08-12T08:28:51.433Z,4.20
2022-08-12T08:31:19.355Z,3.95
2022-08-12T08:34:04.961Z,3.58
2022-08-12T08:36:32.169Z,3.92
2022-08-12T08:38:58.964Z,4.15
2022-08-12T08:42:17.302Z,3.72
2022-08-12T08:44:38.050Z,3.75
2022-08-12T08:47:05.478Z,3.80
2022-08-12T08:49:32.168Z,3.60
2022-08-12T08:52:03.983Z,4.00
2022-08-12T08:54:33.446Z,3.90
2022-08-12T08:57:01.296Z,5.47
2022-08-12T08:59:28.124Z,3.63
2022-08-12T09:01:54.893Z,4.38
2022-08-12T09:05:11.164Z,3.80
2022-08-12T09:10:01.948Z,3.92
2022-08-12T09:15:21.776Z,3.97
2022-08-12T09:17:53.205Z,3.20
2022-08-12T09:20:29.417Z,3.97
2022-08-12T09:22:56.873Z,3.10
2022-08-12T09:25:33.137Z,3.30
2022-08-12T09:28:05.126Z,3.60
2022-08-12T09:30:41.622Z,3.50
2022-08-12T09:33:14.836Z,3.55
2022-08-12T09:38:30.335Z,3.30
2022-08-12T09:42:07.969Z,3.55
2022-08-12T09:44:06.704Z,3.53
2022-08-12T09:46:52.983Z,3.10
2022-08-12T09:49:19.427Z,2.97
2022-08-12T09:51:50.631Z,3.67
2022-08-12T09:54:33.310Z,3.10
2022-08-12T09:58:44.598Z,3.00
2022-08-12T10:00:15.757Z,3.05
2022-08-12T10:02:58.578Z,3.33
2022-08-12T10:06:20.511Z,3.03
2022-08-12T10:08:13.415Z,3.63
2022-08-12T10:11:02.997Z,3.03
2022-08-12T10:13:42.355Z,2.95
2022-08-12T10:16:21.734Z,2.78
2022-08-12T10:18:53.821Z,3.90
2022-08-12T10:21:23.338Z,2.92
2022-08-12T10:23:51.609Z,2.70
2022-08-12T10:26:41.203Z,2.70
2022-08-12T10:30:03.068Z,2.80
2022-08-12T10:32:44.979Z,2.67
2022-08-12T10:35:06.841Z,2.80
2022-08-12T10:38:36.464Z,2.80
2022-08-12T10:40:22.015Z,2.47
2022-08-12T10:43:10.455Z,2.35
2022-08-12T10:45:43.251Z,2.60
2022-08-12T10:48:21.959Z,2.30
2022-08-12T10:51:03.340Z,2.85
2022-08-12T10:53:44.753Z,2.80
2022-08-12T10:56:13.182Z,2.53
2022-08-12T10:58:41.141Z,2.65
2022-08-12T11:01:49.261Z,2.60
2022-08-12T11:04:25.740Z,2.40
2022-08-12T11:07:06.018Z,2.33
2022-08-12T11:09:56.509Z,2.28
2022-08-12T11:12:56.719Z,2.42
2022-08-12T11:15:18.720Z,2.90
2022-08-12T11:17:53.217Z,2.30
2022-08-12T11:20:20.703Z,2.25
2022-08-12T11:22:59.157Z,2.08
2022-08-12T11:25:42.317Z,2.40
2022-08-12T11:28:13.560Z,2.20
2022-08-12T11:30:40.018Z,2.20
2022-08-12T11:33:12.156Z,2.00
2022-08-12T11:35:41.446Z,2.10
2022-08-12T11:38:11.975Z,2.53
2022-08-12T11:40:42.592Z,2.33
2022-08-12T11:43:19.315Z,2.22
2022-08-12T11:45:47.088Z,2.22
2022-08-12T11:48:15.350Z,2.63
2022-08-12T11:50:45.086Z,2.10
2022-08-12T11:53:58.083Z,3.40
2022-08-12T11:55:57.655Z,2.60
2022-08-12T11:59:38.230Z,3.30
2022-08-12T12:02:04.693Z,3.25
2022-08-12T12:03:56.472Z,3.38
2022-08-12T12:06:24.793Z,3.22
2022-08-12T12:08:53.993Z,3.45
2022-08-12T12:11:21.059Z,2.53
2022-08-12T12:14:07.980Z,2.60
2022-08-12T12:16:39.831Z,3.08
2022-08-12T12:19:06.213Z,2.58
2022-08-12T12:21:47.106Z,2.97
2022-08-12T12:24:15.241Z,3.00
2022-08-12T12:27:00.914Z,2.97
2022-08-12T12:30:19.428Z,2.80
2022-08-12T12:32:14.845Z,2.40
2022-08-12T12:35:13.186Z,2.20
2022-08-12T12:38:03.806Z,2.50
2022-08-12T12:40:14.027Z,2.35
2022-08-12T12:42:43.738Z,2.42
2022-08-12T12:45:19.372Z,2.55
2022-08-12T12:47:57.229Z,2.28
2022-08-12T12:50:35.248Z,2.33
2022-08-12T12:53:02.518Z,2.30
2022-08-12T12:55:32.639Z,2.28
2022-08-12T12:58:04.557Z,2.30
2022-08-12T13:00:32.398Z,2.22
2022-08-12T13:02:59.235Z,2.05
2022-08-12T13:05:29.767Z,2.42
2022-08-12T13:08:35.709Z,2.30
2022-08-12T13:11:03.945Z,2.45
2022-08-12T13:14:10.253Z,2.20
2022-08-12T13:16:21.650Z,2.30
2022-08-12T13:18:49.105Z,2.53
2022-08-12T13:21:32.702Z,2.28
2022-08-12T13:23:59.422Z,2.85
2022-08-12T13:26:32.935Z,2.10
2022-08-12T13:29:00.759Z,2.55
2022-08-12T13:31:27.610Z,2.38
2022-08-12T13:34:33.479Z,2.40
2022-08-12T13:36:40.956Z,2.35
2022-08-12T13:39:07.828Z,2.08
2022-08-12T13:41:34.240Z,1.95
2022-08-12T13:44:02.059Z,1.80
2022-08-12T13:46:28.447Z,2.00
2022-08-12T13:48:56.413Z,2.10
2022-08-12T13:51:24.649Z,2.20
2022-08-12T13:53:58.157Z,2.00
2022-08-12T13:56:26.990Z,1.80
2022-08-12T13:59:01.436Z,2.13
2022-08-12T14:01:28.133Z,1.95
2022-08-12T14:03:54.684Z,2.10
2022-08-12T14:06:21.334Z,1.83
2022-08-12T14:08:52.618Z,2.33
2022-08-12T14:11:19.409Z,1.83
2022-08-12T14:14:03.109Z,2.20
2022-08-12T14:16:48.456Z,1.73
2022-08-12T14:19:25.601Z,1.80
2022-08-12T14:22:04.243Z,1.60
2022-08-12T14:24:35.324Z,2.13
2022-08-12T14:27:02.730Z,1.65
2022-08-12T14:29:56.040Z,1.90
2022-08-12T14:32:17.541Z,1.67
2022-08-12T14:34:44.285Z,1.70
2022-08-12T14:37:13.079Z,1.48
2022-08-12T14:39:57.039Z,1.52
2022-08-12T14:42:23.530Z,1.48
2022-08-12T14:45:01.273Z,1.80
2022-08-12T14:47:29.247Z,1.73
2022-08-12T14:50:34.477Z,1.70
2022-08-12T14:54:23.844Z,1.38
2022-08-12T14:58:20.415Z,1.80
2022-08-12T15:01:06.787Z,1.98
2022-08-12T15:03:52.304Z,1.30
2022-08-12T15:06:43.801Z,1.60
2022-08-12T15:09:07.528Z,1.75
2022-08-12T15:11:54.758Z,1.45
2022-08-12T15:14:22.337Z,2.10
2022-08-12T15:16:48.679Z,1.50
2022-08-12T15:20:11.275Z,1.40
2022-08-12T15:22:37.871Z,1.40
2022-08-12T15:24:49.315Z,1.45
2022-08-12T15:27:15.664Z,1.60
2022-08-12T15:29:48.496Z,1.48
2022-08-12T15:32:31.883Z,1.52
2022-08-12T15:35:00.224Z,1.70
2022-08-12T15:38:08.156Z,1.20
2022-08-12T15:40:13.403Z,1.48
2022-08-12T15:42:39.769Z,1.20
2022-08-12T15:45:08.563Z,1.58
2022-08-12T15:47:49.928Z,1.20
2022-08-12T15:50:23.098Z,1.38
2022-08-12T15:52:53.596Z,1.40
2022-08-12T15:55:20.337Z,1.38
2022-08-12T15:57:54.195Z,1.40
2022-08-12T16:00:33.092Z,1.58
2022-08-12T16:03:01.795Z,1.70
2022-08-12T16:06:10.443Z,1.13
2022-08-12T16:08:27.057Z,1.40
2022-08-12T16:10:54.531Z,1.40
2022-08-12T16:13:32.621Z,1.40
2022-08-12T16:16:03.631Z,1.20
2022-08-12T16:18:31.591Z,1.30
2022-08-12T16:20:58.248Z,1.50
2022-08-12T16:23:35.759Z,1.40
2022-08-12T16:26:14.748Z,1.40
2022-08-12T16:28:42.561Z,1.33
2022-08-12T16:31:13.322Z,1.50
2022-08-12T16:33:58.884Z,1.65
2022-08-12T16:36:27.834Z,1.50
2022-08-12T16:38:54.159Z,1.67
2022-08-12T16:41:21.986Z,1.50
2022-08-12T16:43:48.325Z,1.55
2022-08-12T16:46:31.480Z,1.50
2022-08-12T16:49:09.391Z,1.40
2022-08-12T16:51:46.048Z,1.50
2022-08-12T16:54:16.497Z,2.17
2022-08-12T16:56:50.834Z,1.60
2022-08-12T16:59:22.171Z,1.40
2022-08-12T17:01:49.539Z,1.50
2022-08-12T17:04:17.575Z,1.85
2022-08-12T17:06:46.961Z,1.80
2022-08-12T17:09:17.992Z,1.50
2022-08-12T17:11:44.909Z,1.45
2022-08-12T17:14:15.576Z,1.35
2022-08-12T17:16:43.221Z,1.80
2022-08-12T17:19:13.869Z,1.80
2022-08-12T17:22:01.806Z,1.50
2022-08-12T17:24:30.296Z,1.50
2022-08-12T17:26:58.579Z,1.70
2022-08-12T17:30:00.821Z,1.40
2022-08-12T17:32:13.168Z,1.45
2022-08-12T17:34:58.220Z,1.48
2022-08-12T17:37:26.492Z,1.55
2022-08-12T17:40:14.937Z,1.58
2022-08-12T17:42:41.475Z,1.60
2022-08-12T17:45:18.030Z,1.55
2022-08-12T17:48:04.872Z,1.52
2022-08-12T17:50:33.086Z,2.05
2022-08-12T17:53:03.021Z,1.90
2022-08-12T17:55:43.760Z,1.80
2022-08-12T17:58:14.265Z,1.92
2022-08-12T18:00:43.727Z,1.90
2022-08-12T18:03:11.730Z,1.70
2022-08-12T18:05:55.572Z,1.60
2022-08-12T18:08:29.413Z,2.20
2022-08-12T18:11:55.055Z,1.85
2022-08-12T18:14:06.853Z,2.00
2022-08-12T18:16:34.471Z,1.70
2022-08-12T18:19:02.369Z,1.50
2022-08-12T18:22:01.166Z,1.77
2022-08-12T18:24:21.698Z,1.75
2022-08-12T18:26:48.867Z,1.70
2022-08-12T18:29:15.515Z,1.67
2022-08-12T18:31:44.489Z,1.73
2022-08-12T18:34:26.684Z,1.90
2022-08-12T18:36:55.649Z,2.47
2022-08-12T18:39:22.147Z,2.40
2022-08-12T18:41:49.633Z,2.80
2022-08-12T18:44:15.882Z,3.38
2022-08-12T18:46:55.634Z,2.83
2022-08-12T18:49:28.595Z,2.78
2022-08-12T18:52:02.690Z,2.47
2022-08-12T18:54:32.326Z,3.00
2022-08-12T18:57:00.932Z,3.15
2022-08-12T19:00:01.780Z,3.05
2022-08-12T19:02:21.986Z,3.08
2022-08-12T19:04:49.710Z,3.03
2022-08-12T19:07:21.517Z,2.97
2022-08-12T19:09:58.755Z,4.00
2022-08-12T19:12:56.921Z,2.90
2022-08-12T19:15:27.314Z,4.65
2022-08-12T19:18:02.559Z,4.18
2022-08-12T19:20:34.248Z,3.80
2022-08-12T19:23:07.907Z,3.33
2022-08-12T19:26:00.202Z,3.75
2022-08-12T19:28:30.036Z,4.18
2022-08-12T19:31:19.567Z,3.35
2022-08-12T19:34:06.430Z,4.07
2022-08-12T19:36:34.561Z,3.30
2022-08-12T19:39:02.894Z,3.80
2022-08-12T19:41:56.023Z,3.92
2022-08-12T19:44:28.496Z,3.88
2022-08-12T19:46:55.669Z,3.75
2022-08-12T19:49:23.008Z,3.72
2022-08-12T19:51:52.564Z,3.20
2022-08-12T19:54:23.002Z,3.28
2022-08-12T19:56:54.043Z,4.05
2022-08-12T19:59:43.248Z,4.10
2022-08-12T20:02:31.391Z,3.20
2022-08-12T20:05:25.552Z,3.33
2022-08-12T20:07:57.131Z,3.33
2022-08-12T20:10:35.078Z,2.78
2022-08-12T20:13:18.582Z,3.67
2022-08-12T20:15:59.920Z,4.13
2022-08-12T20:18:44.137Z,3.50
2022-08-12T20:24:00.362Z,3.67
2022-08-12T20:28:54.706Z,2.60
2022-08-12T20:31:20.993Z,2.70
2022-08-12T20:33:56.704Z,3.47
2022-08-12T20:36:41.429Z,2.78
2022-08-12T20:39:34.247Z,2.75
2022-08-12T20:41:58.807Z,3.10
2022-08-12T20:44:30.329Z,2.95
2022-08-12T20:46:58.286Z,2.75
2022-08-12T20:49:25.021Z,2.97
2022-08-12T20:51:55.943Z,3.22
2022-08-12T20:54:22.542Z,3.13
2022-08-12T20:56:49.190Z,3.42
2022-08-12T20:59:20.074Z,3.08
2022-08-12T21:01:48.616Z,3.60
2022-08-12T21:04:34.773Z,3.20
2022-08-12T21:07:08.246Z,3.40
2022-08-12T21:09:40.937Z,2.97
2022-08-12T21:12:24.846Z,3.10
2022-08-12T21:17:22.956Z,3.42
2022-08-12T21:20:15.689Z,3.55
2022-08-12T21:22:48.813Z,3.10
2022-08-12T21:25:17.142Z,3.15
2022-08-12T21:27:58.540Z,3.03
2022-08-12T21:30:34.115Z,3.83
2022-08-12T21:33:04.789Z,3.10
2022-08-12T21:35:40.023Z,2.78
2022-08-12T21:38:08.143Z,2.63
2022-08-12T21:40:37.486Z,3.70
2022-08-12T21:43:18.336Z,2.80
2022-08-12T21:46:00.082Z,2.45
2022-08-12T21:48:28.051Z,3.30
2022-08-12T21:50:56.112Z,3.47
2022-08-12T21:53:22.617Z,2.33
2022-08-12T21:58:38.925Z,2.67
2022-08-12T22:01:10.341Z,2.67
2022-08-12T22:04:12.492Z,2.35
2022-08-12T22:06:43.692Z,2.53
2022-08-12T22:09:16.299Z,2.42
2022-08-12T22:11:44.016Z,2.67
2022-08-12T22:14:18.056Z,2.10
2022-08-12T22:16:50.085Z,2.38
2022-08-12T22:19:19.222Z,2.60
2022-08-12T22:21:52.179Z,2.85
2022-08-12T22:24:27.168Z,2.55
2022-08-12T22:27:18.083Z,2.60
2022-08-12T22:30:06.853Z,3.83
2022-08-12T22:32:33.828Z,2.55
2022-08-12T22:35:29.774Z,2.95
2022-08-12T22:38:18.045Z,2.30
2022-08-12T22:40:46.994Z,2.38
2022-08-12T22:43:36.699Z,2.13
2022-08-12T22:46:41.453Z,2.67
2022-08-12T22:49:18.682Z,2.58
2022-08-12T22:52:00.687Z,2.60
2022-08-12T22:54:36.564Z,2.17
2022-08-12T22:57:04.319Z,2.20
2022-08-12T22:59:33.783Z,1.90
2022-08-12T23:04:43.943Z,2.25
2022-08-12T23:07:13.017Z,2.47
2022-08-12T23:09:45.953Z,2.40
2022-08-12T23:12:35.191Z,2.28
2022-08-12T23:15:07.440Z,1.90
2022-08-12T23:17:40.072Z,2.85
2022-08-12T23:20:07.972Z,2.53
2022-08-12T23:22:37.546Z,2.30
2022-08-12T23:25:04.010Z,2.38
2022-08-12T23:27:52.084Z,2.33
2022-08-12T23:30:25.164Z,2.10
2022-08-12T23:33:00.659Z,2.20
2022-08-12T23:35:45.287Z,2.65
2022-08-12T23:38:30.151Z,2.22
2022-08-12T23:40:56.963Z,2.00
2022-08-12T23:43:25.409Z,2.80
2022-08-12T23:46:01.126Z,2.20
2022-08-12T23:51:01.441Z,2.30
2022-08-12T23:53:32.616Z,1.92
2022-08-12T23:55:59.540Z,2.08
2022-08-12T23:58:28.101Z,2.10
